Hakodate, Japan

9:09 PM JST on December 22, 2014 (GMT +0900)
Ominato Aero | Change Station
CLOSE
Current Station
Airport
Location: Ominato AB,
Elevation: 33 ft
Nearby Weather Stations

Elev 33 ft 41.23 °N, 141.13 °E | Updated 28 minutes ago

Light Snow Showers
Light Showers Snow
25 °F
Feels Like 19 °F
N
5
Wind Variable Wind from WNW

Today
High -- | Low -- °F
--% Chance of Precip.
Yesterday
High -- | Low -- °F
Precip. -- in
7:01 AM 4:09 PM
New Moon, 0% visible
Pressure 29.56 in
Visibility 0.6 miles
Clouds Scattered Clouds 300 ft
Overcast 800 ft
Windchill 19 °F
Dew Point 23 °F
Humidity 93%
Rainfall 0.00 in
Snow Depth Not available.
UV 0 out of 12
Pollen Not available.
Air Quality Not available.
Flu Activity Not available.
SPECI RJSO 221141Z 29004KT 230V330 1000 R04///// -SHSN SCT003 OVC008 M04/M05 Q1001 RMK 4ST003 8ST008 A2959

More Conditions Fewer Conditions

Pressure 29.56 in
Visibility 0.6 miles
Clouds Scattered Clouds 300 ft
Overcast 800 ft
Windchill 19 °F
Dew Point 23 °F
Humidity 93%
Rainfall 0.00 in
Snow Depth Not available.
UV 0 out of 12
Pollen Not available.
Air Quality Not available.
Flu Activity Not available.
SPECI RJSO 221141Z 29004KT 230V330 1000 R04///// -SHSN SCT003 OVC008 M04/M05 Q1001 RMK 4ST003 8ST008 A2959

More Conditions Fewer Conditions

10-Day Weather Forecast

Almanac

Astronomy

Dec. 22, 2014 Rise Set
Actual Time
Civil Twilight
Nautical Twilight
Astronomical Twilight
Moon
Length of Visible Light
Length of Day
Tomorrow will be .
, % of the Moon is Illuminated

Today's Extremes

Country Highs Country Lows

Community

WunderPhotos

Upload Photos

1,779,592 photos uploaded!

WunderBlogs® & News

Nearby

Air Quality

  Air Quality AQ Index Pollutant
Not available.

Snow Depth

Station Depth Elevation

Earthquake Activity

City Distance Mag. Time & Date
Minimum magnitude displayed is 2.5.

Coastal Water Temperatures

Place Temperature

Nearby Weather Stations